createdAt,value
2023-01-15T00:04:46.209Z,184.90
2023-01-15T00:14:49.966Z,190.57
2023-01-15T00:25:12.241Z,183.90
2023-01-15T00:35:18.983Z,190.03
2023-01-15T00:45:24.274Z,187.30
2023-01-15T00:55:28.214Z,189.67
2023-01-15T01:05:34.274Z,183.63
2023-01-15T01:15:38.928Z,183.53
2023-01-15T01:25:43.803Z,184.73
2023-01-15T01:35:50.515Z,188.87
2023-01-15T01:45:55.674Z,190.37
2023-01-15T01:56:00.874Z,193.67
2023-01-15T02:06:11.259Z,193.87
2023-01-15T02:16:21.100Z,188.10
2023-01-15T02:26:57.035Z,183.50
2023-01-15T02:37:06.630Z,198.10
2023-01-15T02:47:14.468Z,196.23
2023-01-15T02:57:19.983Z,191.30
2023-01-15T03:07:38.508Z,193.00
2023-01-15T03:17:50.070Z,195.50
2023-01-15T03:27:59.835Z,190.23
2023-01-15T03:38:04.918Z,188.70
2023-01-15T03:48:19.271Z,191.53
2023-01-15T03:58:29.172Z,193.97
2023-01-15T04:08:39.532Z,195.97
2023-01-15T04:18:43.216Z,194.73
2023-01-15T04:28:48.182Z,197.40
2023-01-15T04:38:51.677Z,194.60
2023-01-15T04:48:56.558Z,196.23
2023-01-15T04:59:02.557Z,197.33
2023-01-15T05:09:07.708Z,197.27
2023-01-15T05:19:11.695Z,196.10
2023-01-15T05:29:16.742Z,196.63
2023-01-15T05:39:20.350Z,196.33
2023-01-15T05:49:27.823Z,197.20
2023-01-15T05:59:33.150Z,200.53
2023-01-15T06:09:38.134Z,193.93
2023-01-15T06:19:41.862Z,200.40
2023-01-15T06:29:46.671Z,191.30
2023-01-15T06:39:50.147Z,196.83
2023-01-15T06:49:57.712Z,199.03
2023-01-15T07:00:01.212Z,194.77
2023-01-15T07:10:07.170Z,192.83
2023-01-15T07:20:12.515Z,197.63
2023-01-15T07:30:18.119Z,198.53
2023-01-15T07:40:21.609Z,195.07
2023-01-15T07:50:26.754Z,199.93
2023-01-15T08:00:30.479Z,199.40
2023-01-15T08:10:55.842Z,200.97
2023-01-15T08:20:59.270Z,200.13
2023-01-15T08:31:04.144Z,207.70
2023-01-15T08:41:07.899Z,205.47
2023-01-15T08:51:13.795Z,205.10
2023-01-15T09:01:17.381Z,203.43
2023-01-15T09:11:22.437Z,203.43
2023-01-15T09:21:25.873Z,210.00
2023-01-15T09:31:31.402Z,210.27
2023-01-15T09:42:08.429Z,207.97
2023-01-15T09:52:27.809Z,212.67
2023-01-15T10:02:40.062Z,207.20
2023-01-15T10:12:47.221Z,210.67
2023-01-15T10:23:08.175Z,209.27
2023-01-15T10:33:49.106Z,210.17
2023-01-15T10:43:59.241Z,204.90
2023-01-15T10:54:13.924Z,204.20
2023-01-15T11:04:17.443Z,203.67
2023-01-15T11:14:39.976Z,207.43
2023-01-15T11:24:53.585Z,201.77
2023-01-15T11:35:00.446Z,201.27
2023-01-15T11:45:21.524Z,199.53
2023-01-15T11:55:28.784Z,201.13
2023-01-15T12:05:36.237Z,199.03
2023-01-15T12:15:51.643Z,202.73
2023-01-15T12:26:03.473Z,211.17
2023-01-15T12:36:17.062Z,203.57
2023-01-15T12:46:29.107Z,205.63
2023-01-15T12:56:46.870Z,204.03
2023-01-15T13:06:57.355Z,202.90
2023-01-15T13:17:07.640Z,204.90
2023-01-15T13:27:25.011Z,207.87
2023-01-15T13:37:33.914Z,199.70
2023-01-15T13:47:43.017Z,202.80
2023-01-15T13:57:49.018Z,202.70
2023-01-15T14:07:52.451Z,205.63
2023-01-15T14:18:14.744Z,211.67
2023-01-15T14:28:44.365Z,211.63
2023-01-15T14:38:54.628Z,204.00
2023-01-15T14:48:59.025Z,216.43
2023-01-15T14:59:12.685Z,206.87
2023-01-15T15:09:26.200Z,204.60
2023-01-15T15:19:36.493Z,208.37
2023-01-15T15:29:39.950Z,204.57
2023-01-15T15:39:53.864Z,206.67
2023-01-15T15:49:58.574Z,212.27
2023-01-15T16:00:03.883Z,205.40
2023-01-15T16:10:17.759Z,211.60
2023-01-15T16:20:23.189Z,201.17
2023-01-15T16:30:27.137Z,210.03
2023-01-15T16:40:35.802Z,210.70
2023-01-15T16:50:42.340Z,204.20
2023-01-15T17:00:50.011Z,209.53
2023-01-15T17:10:56.208Z,206.87
2023-01-15T17:21:02.176Z,207.50
2023-01-15T17:31:05.981Z,207.37
2023-01-15T17:41:14.687Z,201.07
2023-01-15T17:51:18.434Z,201.93
2023-01-15T18:01:44.907Z,198.10
2023-01-15T18:11:48.566Z,197.13
2023-01-15T18:21:53.399Z,198.70
2023-01-15T18:31:56.884Z,197.23
2023-01-15T18:42:19.703Z,203.33
2023-01-15T18:52:40.862Z,200.67
2023-01-15T19:02:46.280Z,195.80
2023-01-15T19:12:50.435Z,196.43
2023-01-15T19:23:05.214Z,197.90
2023-01-15T19:33:11.071Z,205.37
2023-01-15T19:43:33.190Z,201.67
2023-01-15T19:53:37.344Z,206.83
2023-01-15T20:03:42.316Z,201.30
2023-01-15T20:13:53.613Z,202.80
2023-01-15T20:23:58.538Z,193.90
2023-01-15T20:34:02.850Z,197.23
2023-01-15T20:44:25.838Z,198.53
2023-01-15T20:54:29.686Z,201.83
2023-01-15T21:04:34.793Z,204.23
2023-01-15T21:14:38.347Z,203.90
2023-01-15T21:24:43.337Z,195.97
2023-01-15T21:34:46.803Z,192.50
2023-01-15T21:44:51.827Z,190.50
2023-01-15T21:54:55.307Z,191.97
2023-01-15T22:05:00.358Z,189.17
2023-01-15T22:15:03.861Z,191.00
2023-01-15T22:25:13.355Z,189.93
2023-01-15T22:35:16.927Z,193.23
2023-01-15T22:45:21.812Z,191.43
2023-01-15T22:55:25.412Z,191.87
2023-01-15T23:05:30.239Z,192.20
2023-01-15T23:15:33.709Z,198.57
2023-01-15T23:25:38.538Z,195.40
2023-01-15T23:35:42.013Z,195.87
2023-01-15T23:46:06.796Z,191.17
2023-01-15T23:56:11.057Z,196.97
